Terminal Aerodrome Forecast
Issued by NWS Milwaukee/Sullivan, WI

Home | Current Version | Previous Version | Text Only | Print | Product List | Glossary On
Versions: 1 2 3 4 5 6 7 8 9 10 11 12 13 14 15 16 17 18 19 20 21 22 23 24 25 26 27 28 29
000
FTUS43 KMKX 311427 AAA
TAFMSN
TAF AMD
KMSN 311427Z 3114/0112 35020G30KT P6SM SCT035
     FM312100 36014G21KT P6SM FEW035
     FM010000 35009KT P6SM SKC
     FM010800 35005KT P6SM SKC=

USA.gov is the U.S. government's official web portal to all federal, state and local government web resources and services.